Time;durP1;ratioP1;P1;durP2;ratioP2;P2;SDS_P1;SDS_P2;PMS_P1;PMS_P2;Temp;Humidity;BMP_temperature;BMP_pressure;BME280_temperature;BME280_humidity;BME280_pressure;Samples;Min_cycle;Max_cycle;Signal;HPM_P1;HPM_P2
2023/03/27 00:00:16;;;;;;;1.20;1.00;;;10.00;41.80;;;;;;10318561;28;20226;-74
2023/03/27 00:05:21;;;;;;;0.80;0.80;;;9.90;42.70;;;;;;10324574;28;20226;-74
2023/03/27 00:10:25;;;;;;;0.77;0.77;;;9.80;43.00;;;;;;10322060;28;20230;-74
2023/03/27 00:15:28;;;;;;;1.10;1.00;;;9.70;42.70;;;;;;10331103;28;20710;-74
2023/03/27 00:20:36;;;;;;;0.93;0.93;;;9.70;42.70;;;;;;10330660;28;20230;-74
2023/03/27 00:25:39;;;;;;;1.10;1.00;;;9.70;43.10;;;;;;10324759;28;20589;-74
2023/03/27 00:30:43;;;;;;;1.23;0.80;;;9.70;43.10;;;;;;10316334;28;20718;-74
2023/03/27 00:35:49;;;;;;;1.53;0.70;;;9.60;43.10;;;;;;10324366;28;20329;-74
2023/03/27 00:40:54;;;;;;;1.73;0.90;;;9.70;43.30;;;;;;10323700;28;20231;-74
2023/03/27 00:46:02;;;;;;;1.40;0.77;;;9.60;43.10;;;;;;10319949;28;20228;-74
2023/03/27 00:51:08;;;;;;;0.80;0.80;;;9.60;43.40;;;;;;10325408;28;20314;-74
2023/03/27 00:56:14;;;;;;;0.97;0.70;;;9.60;43.40;;;;;;10316217;28;20224;-74
2023/03/27 01:01:20;;;;;;;1.47;0.80;;;9.60;43.20;;;;;;10318067;28;20227;-73
2023/03/27 01:06:25;;;;;;;0.70;0.70;;;9.60;43.90;;;;;;10317993;28;20239;-74
2023/03/27 01:11:38;;;;;;;1.13;0.73;;;9.60;43.30;;;;;;10318315;28;20606;-74
2023/03/27 01:16:52;;;;;;;0.70;0.70;;;9.50;44.00;;;;;;10314922;28;20616;-74
2023/03/27 01:22:20;;;;;;;2.17;0.77;;;9.50;43.90;;;;;;10313377;28;20235;-74
2023/03/27 01:27:44;;;;;;;0.93;0.80;;;9.50;44.20;;;;;;10308356;28;20692;-74
2023/03/27 01:33:13;;;;;;;0.80;0.80;;;9.50;44.30;;;;;;10323290;28;20227;-74
2023/03/27 01:38:36;;;;;;;1.73;0.90;;;9.50;44.60;;;;;;10321141;28;20218;-74
2023/03/27 01:43:48;;;;;;;1.03;0.93;;;9.40;44.60;;;;;;10321845;28;21204;-74
2023/03/27 01:48:57;;;;;;;2.03;0.70;;;9.40;44.50;;;;;;10314301;28;20230;-75
2023/03/27 01:54:07;;;;;;;1.10;1.00;;;9.30;44.60;;;;;;10315300;28;20230;-74
2023/03/27 01:59:16;;;;;;;1.00;0.90;;;9.30;44.30;;;;;;10331200;28;20893;-74
2023/03/27 02:04:26;;;;;;;0.90;0.90;;;9.30;44.70;;;;;;10316586;28;20226;-74
2023/03/27 02:09:34;;;;;;;1.90;0.90;;;9.40;44.50;;;;;;10317226;28;20306;-75
2023/03/27 02:14:45;;;;;;;1.07;1.00;;;9.40;44.60;;;;;;10307414;28;20234;-74
2023/03/27 02:19:55;;;;;;;1.67;1.20;;;9.40;44.60;;;;;;10322772;28;20226;-74
2023/03/27 02:24:58;;;;;;;1.10;1.10;;;9.40;44.50;;;;;;10317253;28;20242;-74
2023/03/27 02:30:14;;;;;;;1.40;1.30;;;9.50;43.90;;;;;;10325678;28;20697;-74
2023/03/27 02:35:33;;;;;;;1.50;1.40;;;9.50;44.70;;;;;;10317891;28;20218;-74
2023/03/27 02:40:47;;;;;;;1.43;1.30;;;9.50;44.80;;;;;;10316914;28;20702;-74
2023/03/27 02:45:59;;;;;;;1.53;1.43;;;9.50;44.70;;;;;;10321284;28;20236;-74
2023/03/27 02:51:08;;;;;;;1.40;1.30;;;9.40;44.60;;;;;;10318072;28;20721;-74
2023/03/27 02:56:12;;;;;;;1.43;1.43;;;9.40;44.50;;;;;;10313329;28;20725;-74
2023/03/27 03:01:20;;;;;;;1.70;1.60;;;9.30;44.30;;;;;;10315856;28;20593;-75
2023/03/27 03:06:28;;;;;;;1.70;1.60;;;9.40;44.70;;;;;;10320890;28;20974;-74
2023/03/27 03:11:34;;;;;;;1.60;1.50;;;9.40;44.30;;;;;;10316408;28;20234;-75
2023/03/27 03:16:38;;;;;;;1.53;1.43;;;9.40;44.40;;;;;;10313002;28;20253;-74
2023/03/27 03:21:41;;;;;;;1.83;1.73;;;9.40;44.50;;;;;;10317776;28;20762;-74
2023/03/27 03:26:48;;;;;;;1.77;1.40;;;9.40;44.20;;;;;;10316834;28;20804;-74
2023/03/27 03:31:54;;;;;;;1.50;1.40;;;9.40;44.30;;;;;;10311671;28;20691;-74
2023/03/27 03:36:57;;;;;;;1.30;1.30;;;9.40;44.60;;;;;;10321214;28;20234;-74
2023/03/27 03:42:00;;;;;;;1.30;1.20;;;9.40;44.40;;;;;;10306400;28;20247;-75
2023/03/27 03:47:05;;;;;;;1.20;1.20;;;9.30;44.50;;;;;;10313342;28;20253;-75
2023/03/27 03:52:08;;;;;;;1.27;1.20;;;9.30;45.10;;;;;;10310976;28;20367;-75
2023/03/27 03:57:11;;;;;;;1.03;1.03;;;9.20;44.90;;;;;;10308080;28;20241;-75
2023/03/27 04:02:26;;;;;;;1.13;1.13;;;9.20;45.20;;;;;;10310530;28;20249;-75
2023/03/27 04:07:30;;;;;;;0.70;0.70;;;9.10;45.90;;;;;;10300334;28;20230;-75
2023/03/27 04:12:33;;;;;;;0.63;0.60;;;9.00;46.00;;;;;;10306419;28;21210;-75
2023/03/27 04:17:39;;;;;;;0.40;0.40;;;8.90;45.70;;;;;;10304457;28;20235;-75
2023/03/27 04:22:45;;;;;;;0.50;0.50;;;8.80;45.70;;;;;;10314730;28;20762;-75
2023/03/27 04:27:50;;;;;;;0.37;0.37;;;8.70;45.30;;;;;;10311315;28;20326;-75
2023/03/27 04:32:58;;;;;;;0.30;0.30;;;8.60;45.30;;;;;;10311837;28;20690;-75
2023/03/27 04:38:02;;;;;;;0.40;0.40;;;8.60;45.20;;;;;;10304546;28;20235;-75
2023/03/27 04:43:06;;;;;;;0.47;0.40;;;8.50;45.20;;;;;;10295103;28;20242;-75
2023/03/27 04:48:13;;;;;;;0.40;0.40;;;8.50;45.20;;;;;;10315100;28;20254;-78
2023/03/27 04:53:17;;;;;;;0.60;0.60;;;8.50;45.30;;;;;;10316812;28;20225;-78
2023/03/27 04:58:20;;;;;;;0.60;0.60;;;8.40;44.80;;;;;;10321535;28;20231;-73
2023/03/27 05:03:24;;;;;;;0.87;0.83;;;8.40;44.60;;;;;;10306756;28;20238;-73
2023/03/27 05:08:28;;;;;;;1.57;0.90;;;8.40;44.70;;;;;;10308651;28;20226;-73
2023/03/27 05:13:31;;;;;;;1.83;0.73;;;8.40;44.60;;;;;;10310440;28;20223;-73
2023/03/27 05:18:37;;;;;;;0.97;0.70;;;8.30;44.40;;;;;;10316910;28;20879;-74
2023/03/27 05:23:43;;;;;;;0.60;0.60;;;8.40;44.50;;;;;;10325107;28;20247;-72
2023/03/27 05:28:47;;;;;;;0.60;0.60;;;8.30;44.50;;;;;;10313811;28;20230;-73
2023/03/27 05:33:52;;;;;;;0.70;0.70;;;8.30;44.60;;;;;;10305096;28;20236;-73
2023/03/27 05:38:56;;;;;;;0.80;0.80;;;8.20;45.00;;;;;;10301319;28;20226;-74
2023/03/27 05:44:00;;;;;;;2.13;0.90;;;8.10;44.60;;;;;;10307685;28;20243;-73
2023/03/27 05:49:04;;;;;;;0.80;0.80;;;8.00;44.60;;;;;;10315311;28;20226;-73
2023/03/27 05:54:07;;;;;;;0.97;0.80;;;8.00;45.00;;;;;;10301386;28;20231;-73
2023/03/27 05:59:10;;;;;;;1.00;1.00;;;7.90;44.60;;;;;;10305191;28;20228;-73
2023/03/27 06:04:16;;;;;;;1.17;1.03;;;7.90;44.70;;;;;;10307245;28;20230;-74
2023/03/27 06:09:22;;;;;;;0.90;0.90;;;7.90;44.80;;;;;;10318031;28;20617;-75
2023/03/27 06:14:27;;;;;;;1.00;1.00;;;7.90;45.00;;;;;;10319229;28;20255;-74
2023/03/27 06:19:32;;;;;;;0.80;0.80;;;7.90;44.80;;;;;;10303153;28;20246;-72
2023/03/27 06:24:35;;;;;;;1.43;1.00;;;7.80;45.00;;;;;;10305486;28;20235;-72
2023/03/27 06:29:39;;;;;;;0.90;0.90;;;7.80;45.00;;;;;;10307423;28;20237;-73
2023/03/27 06:34:44;;;;;;;0.90;0.90;;;7.80;45.00;;;;;;10299006;28;20235;-73
2023/03/27 06:39:49;;;;;;;2.00;1.00;;;7.70;44.90;;;;;;10313464;28;20249;-72
2023/03/27 06:44:52;;;;;;;1.33;1.23;;;7.70;44.90;;;;;;10310160;28;20310;-72
2023/03/27 06:49:57;;;;;;;1.50;1.20;;;7.70;44.90;;;;;;10315981;28;20325;-74
2023/03/27 06:55:02;;;;;;;1.27;1.17;;;7.70;44.90;;;;;;10305222;28;20714;-74
2023/03/27 07:00:10;;;;;;;1.80;1.70;;;7.60;44.80;;;;;;10307094;28;20241;-74
2023/03/27 07:05:15;;;;;;;2.00;1.73;;;7.60;45.10;;;;;;10310470;28;20775;-74
2023/03/27 07:10:19;;;;;;;1.60;1.50;;;7.50;45.50;;;;;;10306147;28;20317;-74
2023/03/27 07:15:23;;;;;;;2.03;1.83;;;7.50;45.30;;;;;;10302668;28;20246;-75
2023/03/27 07:20:30;;;;;;;2.63;1.70;;;7.50;45.40;;;;;;10319556;28;20591;-74
2023/03/27 07:25:36;;;;;;;2.70;1.60;;;7.50;45.10;;;;;;10313152;28;20603;-74
2023/03/27 07:30:40;;;;;;;2.33;1.50;;;7.40;44.10;;;;;;10303577;28;20238;-73
2023/03/27 07:35:45;;;;;;;3.30;1.70;;;7.30;44.10;;;;;;10314124;28;20226;-73
2023/03/27 07:40:49;;;;;;;2.70;1.50;;;7.20;44.30;;;;;;10314085;28;20231;-74
2023/03/27 07:45:52;;;;;;;3.80;1.60;;;7.10;44.10;;;;;;10314445;28;20223;-74
2023/03/27 07:50:59;;;;;;;1.60;1.50;;;7.00;44.40;;;;;;10308721;28;20383;-74
2023/03/27 07:56:15;;;;;;;1.93;1.53;;;7.10;44.70;;;;;;10306109;28;20722;-74
2023/03/27 08:01:18;;;;;;;2.57;1.70;;;7.10;44.50;;;;;;10311818;28;20233;-73
2023/03/27 08:06:23;;;;;;;3.60;1.87;;;7.20;45.40;;;;;;10310664;28;20964;-73
2023/03/27 08:11:26;;;;;;;5.53;2.03;;;7.30;44.60;;;;;;10322553;28;20284;-73
2023/03/27 08:16:33;;;;;;;3.33;1.97;;;7.40;44.60;;;;;;10299368;28;20255;-72
2023/03/27 08:21:38;;;;;;;1.73;1.63;;;7.40;44.30;;;;;;10292952;28;20235;-72
2023/03/27 08:26:41;;;;;;;3.87;1.80;;;7.50;44.40;;;;;;10319084;28;20238;-74
2023/03/27 08:31:44;;;;;;;3.07;1.80;;;7.60;44.20;;;;;;10318833;28;20226;-73
2023/03/27 08:36:50;;;;;;;3.20;2.20;;;7.70;44.00;;;;;;10320819;28;20276;-73
2023/03/27 08:41:56;;;;;;;2.20;2.00;;;7.70;43.70;;;;;;10307672;28;20700;-73
2023/03/27 08:47:03;;;;;;;2.93;2.50;;;7.80;43.60;;;;;;10305191;28;21064;-73
2023/03/27 08:52:14;;;;;;;5.93;2.47;;;7.80;43.20;;;;;;10315298;28;20235;-74
2023/03/27 08:57:19;;;;;;;4.57;2.27;;;7.80;43.60;;;;;;10310683;28;20230;-73
2023/03/27 09:02:34;;;;;;;4.07;2.60;;;7.80;43.10;;;;;;10311265;28;20331;-73
2023/03/27 09:07:44;;;;;;;6.70;3.13;;;7.80;42.90;;;;;;10323826;28;20779;-73
2023/03/27 09:13:00;;;;;;;4.43;2.70;;;7.80;42.40;;;;;;10300849;28;21225;-73
2023/03/27 09:18:06;;;;;;;4.90;2.70;;;7.80;42.10;;;;;;10295829;28;20301;-72
2023/03/27 09:23:15;;;;;;;6.37;2.97;;;7.80;42.60;;;;;;10309060;28;20629;-72
2023/03/27 09:28:25;;;;;;;3.40;2.57;;;7.90;41.80;;;;;;10311531;28;20242;-72
2023/03/27 09:33:30;;;;;;;4.27;2.50;;;7.90;42.00;;;;;;10311454;28;20234;-72
2023/03/27 09:38:37;;;;;;;6.87;2.57;;;7.80;41.60;;;;;;10313785;28;20899;-72
2023/03/27 09:43:45;;;;;;;5.00;2.60;;;7.80;41.50;;;;;;10309520;28;20227;-73
2023/03/27 09:48:56;;;;;;;6.07;2.77;;;7.80;41.60;;;;;;10304944;28;20227;-72
2023/03/27 09:54:00;;;;;;;5.20;2.50;;;7.80;41.30;;;;;;10323812;28;20227;-72
2023/03/27 09:59:10;;;;;;;5.60;2.87;;;7.80;41.60;;;;;;10359707;28;20893;-72
2023/03/27 10:04:16;;;;;;;5.00;2.50;;;7.80;41.40;;;;;;10355982;28;20316;-72
2023/03/27 10:09:25;;;;;;;3.33;2.40;;;7.70;41.30;;;;;;10345975;28;20345;-76
2023/03/27 10:14:29;;;;;;;3.87;2.70;;;7.70;41.20;;;;;;10363369;28;20232;-75
2023/03/27 10:19:35;;;;;;;3.97;2.27;;;7.70;41.30;;;;;;10345709;28;20242;-74
2023/03/27 10:24:41;;;;;;;3.27;2.07;;;7.70;41.30;;;;;;10351661;28;20230;-75
2023/03/27 10:29:48;;;;;;;2.37;2.00;;;7.90;40.70;;;;;;10341171;28;20607;-74
2023/03/27 10:34:54;;;;;;;4.00;1.87;;;8.00;40.90;;;;;;10348302;28;20233;-75
2023/03/27 10:40:06;;;;;;;5.10;1.80;;;8.20;40.20;;;;;;10354457;28;20261;-75
2023/03/27 10:45:16;;;;;;;3.97;1.80;;;8.30;39.10;;;;;;10354954;28;20730;-74
2023/03/27 10:50:22;;;;;;;3.00;1.40;;;8.60;38.10;;;;;;10353983;28;20214;-74
2023/03/27 10:55:40;;;;;;;2.50;1.50;;;8.70;37.30;;;;;;10353247;28;20242;-74
2023/03/27 11:00:49;;;;;;;5.13;1.73;;;8.90;35.30;;;;;;10356797;28;20221;-74
2023/03/27 11:05:53;;;;;;;2.13;1.33;;;8.90;34.60;;;;;;10354092;28;20234;-73
2023/03/27 11:11:03;;;;;;;1.83;1.30;;;9.00;35.30;;;;;;10346919;28;20642;-76
2023/03/27 11:16:15;;;;;;;1.67;1.10;;;8.80;35.20;;;;;;10343639;28;20292;-74
2023/03/27 11:21:21;;;;;;;2.47;1.17;;;8.80;34.10;;;;;;10343740;28;20637;-74
2023/03/27 11:26:32;;;;;;;1.67;1.50;;;8.80;34.60;;;;;;10345713;28;20234;-74
2023/03/27 11:31:39;;;;;;;2.10;1.10;;;8.80;34.90;;;;;;10345676;28;20229;-74
2023/03/27 11:36:50;;;;;;;3.07;2.53;;;9.00;34.00;;;;;;10351933;28;20231;-74
2023/03/27 11:41:57;;;;;;;4.00;2.27;;;9.00;33.50;;;;;;10356491;28;20288;-74
2023/03/27 11:47:23;;;;;;;2.23;2.03;;;9.00;33.90;;;;;;10350681;28;20249;-75
2023/03/27 11:52:38;;;;;;;2.73;1.00;;;9.00;30.70;;;;;;10343558;28;20225;-74
2023/03/27 11:57:56;;;;;;;2.43;1.63;;;9.20;32.70;;;;;;10348261;28;20230;-74
2023/03/27 12:03:28;;;;;;;2.30;1.23;;;9.30;31.70;;;;;;10357921;28;20281;-71
2023/03/27 12:08:42;;;;;;;2.47;1.80;;;9.40;28.70;;;;;;10331043;28;20236;-71
2023/03/27 12:14:30;;;;;;;1.33;0.93;;;9.40;30.40;;;;;;10386105;28;20225;-71
2023/03/27 12:20:04;;;;;;;2.27;1.10;;;9.30;28.60;;;;;;10325048;28;20230;-71
2023/03/27 12:25:34;;;;;;;3.13;0.90;;;9.20;28.50;;;;;;10339347;28;20687;-70
2023/03/27 12:30:49;;;;;;;2.00;1.10;;;9.10;28.50;;;;;;10339860;28;20242;-70
2023/03/27 12:35:57;;;;;;;0.80;0.80;;;9.10;31.10;;;;;;10332175;28;20230;-71
2023/03/27 12:41:04;;;;;;;1.10;0.90;;;9.20;31.10;;;;;;10341690;28;20266;-71
2023/03/27 12:46:11;;;;;;;1.57;0.80;;;9.20;31.60;;;;;;10348664;28;20226;-71
2023/03/27 12:51:18;;;;;;;3.07;0.97;;;9.30;31.00;;;;;;10345564;28;20215;-72
2023/03/27 12:56:37;;;;;;;3.13;1.00;;;9.30;31.10;;;;;;10349506;28;20238;-71
2023/03/27 13:02:21;;;;;;;2.40;1.20;;;9.30;30.80;;;;;;10345092;28;20246;-71
2023/03/27 13:07:35;;;;;;;2.10;1.00;;;9.20;28.50;;;;;;10350785;28;20285;-72
2023/03/27 13:13:04;;;;;;;1.73;0.80;;;9.20;30.00;;;;;;10352600;28;20222;-72
2023/03/27 13:18:31;;;;;;;0.90;0.80;;;9.20;32.70;;;;;;10357805;28;20236;-72
2023/03/27 13:23:48;;;;;;;1.83;0.93;;;9.20;33.70;;;;;;10362213;28;20237;-72
2023/03/27 13:28:53;;;;;;;1.73;0.80;;;9.10;33.30;;;;;;10347838;28;20572;-72
2023/03/27 13:34:15;;;;;;;0.77;0.70;;;9.20;33.70;;;;;;10359295;28;20241;-72
2023/03/27 13:39:23;;;;;;;1.00;0.90;;;9.20;31.90;;;;;;10358720;28;20230;-72
2023/03/27 13:44:36;;;;;;;2.23;0.90;;;9.30;32.20;;;;;;10349539;28;20270;-72
2023/03/27 13:49:59;;;;;;;1.80;0.90;;;9.40;30.30;;;;;;10347639;28;20233;-72
2023/03/27 13:55:38;;;;;;;1.33;0.90;;;9.40;29.40;;;;;;10344389;28;20244;-71
2023/03/27 14:00:54;;;;;;;1.87;0.90;;;9.40;30.00;;;;;;10357045;28;20800;-72
2023/03/27 14:06:28;;;;;;;2.40;1.00;;;9.30;31.90;;;;;;10351932;28;20295;-72
2023/03/27 14:11:47;;;;;;;2.13;1.10;;;9.20;31.00;;;;;;10332121;28;20843;-72
2023/03/27 14:17:14;;;;;;;1.30;0.90;;;9.00;32.50;;;;;;10256726;23;20237;-73
2023/03/27 14:22:22;;;;;;;11.53;1.73;;;8.80;33.00;;;;;;10220405;28;20235;-74
2023/03/27 14:27:28;;;;;;;2.00;0.90;;;8.60;33.90;;;;;;10182638;29;20244;-74
2023/03/27 14:32:31;;;;;;;1.43;1.00;;;8.60;33.80;;;;;;10174540;29;20229;-73
2023/03/27 14:37:37;;;;;;;2.57;0.97;;;8.60;33.20;;;;;;10177698;28;20872;-72
2023/03/27 14:42:46;;;;;;;1.43;0.83;;;8.60;33.50;;;;;;10180520;29;20235;-74
2023/03/27 14:47:53;;;;;;;1.30;0.90;;;8.70;33.00;;;;;;10174226;29;20232;-73
2023/03/27 14:52:58;;;;;;;2.03;0.90;;;8.80;33.60;;;;;;10177097;29;20233;-75
2023/03/27 14:58:09;;;;;;;2.00;0.90;;;8.80;33.70;;;;;;10180550;29;20238;-74
2023/03/27 15:03:16;;;;;;;1.73;0.90;;;8.90;33.00;;;;;;10171063;28;20232;-73
2023/03/27 15:08:22;;;;;;;2.20;1.10;;;9.10;33.50;;;;;;10227110;28;20243;-73
2023/03/27 15:13:32;;;;;;;1.17;0.80;;;9.10;32.30;;;;;;10203748;28;20236;-74
2023/03/27 15:18:40;;;;;;;0.80;0.80;;;9.10;33.60;;;;;;10185676;28;20232;-74
2023/03/27 15:23:50;;;;;;;1.67;0.90;;;8.90;34.40;;;;;;10179196;29;20225;-75
2023/03/27 15:29:02;;;;;;;1.37;0.83;;;8.70;34.70;;;;;;10187379;29;20945;-73
2023/03/27 15:34:11;;;;;;;3.90;0.90;;;8.30;35.50;;;;;;10192095;28;20228;-72
2023/03/27 15:39:21;;;;;;;1.37;0.90;;;8.00;36.00;;;;;;10191262;28;20736;-74
2023/03/27 15:44:31;;;;;;;1.03;0.73;;;7.80;36.90;;;;;;10203308;28;20599;-73
2023/03/27 15:49:37;;;;;;;0.80;0.80;;;7.60;37.10;;;;;;10190134;29;20245;-73
2023/03/27 15:54:54;;;;;;;2.30;0.90;;;7.60;37.20;;;;;;10181111;29;20256;-75
2023/03/27 16:00:03;;;;;;;1.73;1.00;;;7.50;38.10;;;;;;10191091;29;20243;-74
2023/03/27 16:05:07;;;;;;;1.43;1.07;;;7.50;38.40;;;;;;10186868;29;20700;-74
2023/03/27 16:10:11;;;;;;;1.70;1.40;;;7.50;37.70;;;;;;10182703;29;20240;-74
2023/03/27 16:15:28;;;;;;;1.50;1.40;;;7.50;37.90;;;;;;10194002;29;20255;-75
2023/03/27 16:20:36;;;;;;;2.63;1.40;;;7.50;38.80;;;;;;10184814;29;20233;-74
2023/03/27 16:25:40;;;;;;;1.90;1.20;;;7.50;38.30;;;;;;10186026;29;20887;-74
2023/03/27 16:30:44;;;;;;;1.30;1.20;;;7.50;38.20;;;;;;10186210;29;20229;-74
2023/03/27 16:35:48;;;;;;;1.30;1.10;;;7.50;38.40;;;;;;10185078;29;20243;-74
2023/03/27 16:40:51;;;;;;;3.03;1.30;;;7.50;38.40;;;;;;10189243;29;20744;-74
2023/03/27 16:45:56;;;;;;;1.40;1.30;;;7.50;37.30;;;;;;10192689;29;20596;-74
2023/03/27 16:50:59;;;;;;;1.77;1.10;;;7.30;37.40;;;;;;10192434;29;20324;-74
2023/03/27 16:56:03;;;;;;;2.97;1.50;;;7.10;37.40;;;;;;10185560;29;20225;-74
2023/03/27 17:01:09;;;;;;;2.33;1.37;;;7.00;37.60;;;;;;10183877;29;20312;-74
2023/03/27 17:06:14;;;;;;;1.80;1.27;;;6.80;37.90;;;;;;10179182;29;20256;-73
2023/03/27 17:11:17;;;;;;;2.67;2.30;;;6.70;38.10;;;;;;10179024;29;20278;-74
2023/03/27 17:16:21;;;;;;;1.83;1.40;;;6.70;38.20;;;;;;10188824;29;20272;-74
2023/03/27 17:21:25;;;;;;;3.70;1.70;;;6.60;38.10;;;;;;10182974;29;20307;-74
2023/03/27 17:26:30;;;;;;;3.00;1.87;;;6.60;38.10;;;;;;10194293;29;20232;-74
2023/03/27 17:31:35;;;;;;;2.13;1.40;;;6.60;38.10;;;;;;10194474;29;20229;-74
2023/03/27 17:36:39;;;;;;;2.43;1.60;;;6.60;38.10;;;;;;10183231;29;20256;-74
2023/03/27 17:41:51;;;;;;;1.60;1.50;;;6.60;38.10;;;;;;10184724;29;20253;-75
2023/03/27 17:46:56;;;;;;;1.47;1.37;;;6.70;38.20;;;;;;10188290;29;20326;-74
2023/03/27 17:52:01;;;;;;;1.80;1.50;;;6.60;38.10;;;;;;10191119;29;20225;-75
2023/03/27 17:57:05;;;;;;;2.03;1.50;;;6.60;38.10;;;;;;10186359;29;20612;-75
2023/03/27 18:02:15;;;;;;;1.63;1.50;;;6.60;38.10;;;;;;10191706;29;20232;-74
2023/03/27 18:07:19;;;;;;;1.93;1.70;;;6.50;38.00;;;;;;10189825;29;20247;-74
2023/03/27 18:12:23;;;;;;;2.03;1.50;;;6.40;37.90;;;;;;10187606;29;20236;-74
2023/03/27 18:17:27;;;;;;;1.63;1.53;;;6.30;37.90;;;;;;10182154;29;20233;-74
2023/03/27 18:22:31;;;;;;;1.43;1.33;;;6.20;37.80;;;;;;10196835;29;20232;-76
2023/03/27 18:27:38;;;;;;;1.60;1.50;;;6.20;37.80;;;;;;10198913;29;20232;-75
2023/03/27 18:32:45;;;;;;;1.40;1.30;;;6.20;37.80;;;;;;10196396;29;20320;-75
2023/03/27 18:37:48;;;;;;;1.50;1.40;;;6.10;37.90;;;;;;10194072;29;20239;-76
2023/03/27 18:42:51;;;;;;;2.83;1.50;;;6.00;37.90;;;;;;10200753;29;20332;-75
2023/03/27 18:47:58;;;;;;;4.97;3.30;;;6.00;38.30;;;;;;10187025;29;20237;-75
2023/03/27 18:53:02;;;;;;;2.00;1.80;;;5.90;38.30;;;;;;10197025;29;20248;-74
2023/03/27 18:58:08;;;;;;;1.83;1.60;;;6.00;38.40;;;;;;10191191;28;20326;-76
2023/03/27 19:03:16;;;;;;;1.90;1.70;;;5.90;38.40;;;;;;10206864;28;20619;-77
2023/03/27 19:08:21;;;;;;;1.97;1.77;;;5.90;38.70;;;;;;10197588;28;20312;-77
2023/03/27 19:13:25;;;;;;;2.80;2.10;;;5.90;38.40;;;;;;10198622;28;20229;-77
2023/03/27 19:18:30;;;;;;;4.67;4.20;;;5.90;38.60;;;;;;10199205;28;21112;-77
2023/03/27 19:23:33;;;;;;;2.50;2.30;;;5.90;38.60;;;;;;10197182;28;20241;-77
2023/03/27 19:28:38;;;;;;;2.40;2.20;;;5.90;38.40;;;;;;10205239;28;20651;-77
2023/03/27 19:33:44;;;;;;;3.03;2.73;;;6.00;38.50;;;;;;10206825;28;20232;-77
2023/03/27 19:38:47;;;;;;;2.67;2.43;;;6.00;38.50;;;;;;10196645;28;20225;-75
2023/03/27 19:43:51;;;;;;;2.80;2.13;;;6.00;38.30;;;;;;10180592;29;20249;-75
2023/03/27 19:48:55;;;;;;;2.20;1.87;;;6.10;38.30;;;;;;10228144;28;20728;-75
2023/03/27 19:53:59;;;;;;;1.80;1.70;;;6.10;38.30;;;;;;10227048;28;20236;-75
2023/03/27 19:59:02;;;;;;;2.10;1.83;;;6.10;38.00;;;;;;10202034;28;20905;-75
2023/03/27 20:04:07;;;;;;;2.50;2.30;;;6.00;38.10;;;;;;10224273;28;20247;-74
2023/03/27 20:09:11;;;;;;;2.90;2.70;;;6.00;38.50;;;;;;10187472;28;20851;-74
2023/03/27 20:14:14;;;;;;;3.43;3.13;;;5.90;38.50;;;;;;10186128;28;20320;-75
2023/03/27 20:19:19;;;;;;;2.97;2.77;;;5.90;38.40;;;;;;10193313;28;20280;-75
2023/03/27 20:24:24;;;;;;;4.10;3.70;;;5.80;38.60;;;;;;10196896;28;20551;-75
2023/03/27 20:29:27;;;;;;;2.77;2.47;;;5.80;38.60;;;;;;10195373;29;20292;-74
2023/03/27 20:34:33;;;;;;;3.00;1.90;;;5.70;38.70;;;;;;10209015;28;20236;-75
2023/03/27 20:39:37;;;;;;;2.10;1.90;;;5.80;38.90;;;;;;10235748;28;20238;-76
2023/03/27 20:44:43;;;;;;;2.83;2.00;;;5.80;38.70;;;;;;10230947;28;20240;-76
2023/03/27 20:49:49;;;;;;;2.50;2.17;;;5.90;38.70;;;;;;10217633;28;20753;-76
2023/03/27 20:54:53;;;;;;;2.17;2.03;;;5.90;38.70;;;;;;10205839;28;20240;-75
2023/03/27 20:59:56;;;;;;;2.60;2.33;;;5.90;38.40;;;;;;10202158;29;20233;-77
2023/03/27 21:05:01;;;;;;;3.53;2.53;;;5.90;38.50;;;;;;10208699;28;20233;-77
2023/03/27 21:10:06;;;;;;;2.37;2.10;;;5.90;38.70;;;;;;10240610;28;20251;-75
2023/03/27 21:15:12;;;;;;;1.80;1.70;;;5.90;38.40;;;;;;10241072;28;20323;-76
2023/03/27 21:20:17;;;;;;;1.70;1.60;;;5.90;38.60;;;;;;10237809;28;20228;-76
2023/03/27 21:25:21;;;;;;;2.13;1.80;;;5.90;38.60;;;;;;10239371;28;20236;-75
2023/03/27 21:30:24;;;;;;;2.20;2.00;;;5.90;38.50;;;;;;10201851;29;20276;-76
2023/03/27 21:35:49;;;;;;;2.00;1.83;;;5.80;38.60;;;;;;10223168;28;20315;-75
2023/03/27 21:40:52;;;;;;;2.20;1.90;;;5.80;38.60;;;;;;10231170;28;20235;-77
2023/03/27 21:45:57;;;;;;;2.10;2.00;;;5.70;38.60;;;;;;10215292;28;20233;-76
2023/03/27 21:51:04;;;;;;;2.83;1.93;;;5.70;38.60;;;;;;10207292;28;20240;-75
2023/03/27 21:56:08;;;;;;;2.70;2.47;;;5.70;38.80;;;;;;10225421;28;20626;-72
2023/03/27 22:01:11;;;;;;;3.33;3.03;;;5.70;38.70;;;;;;10239002;28;20274;-73
2023/03/27 22:06:16;;;;;;;3.00;2.70;;;5.70;38.70;;;;;;10234646;28;20241;-72
2023/03/27 22:11:20;;;;;;;2.70;2.47;;;5.60;38.70;;;;;;10234303;28;20240;-71
2023/03/27 22:16:23;;;;;;;2.50;2.30;;;5.60;38.70;;;;;;10201748;28;20672;-73
2023/03/27 22:21:31;;;;;;;3.40;2.10;;;5.60;38.80;;;;;;10197721;29;20963;-73
2023/03/27 22:26:36;;;;;;;2.50;2.30;;;5.60;39.10;;;;;;10235534;28;20981;-72
2023/03/27 22:31:39;;;;;;;2.53;2.33;;;5.50;39.10;;;;;;10237440;28;20236;-73
2023/03/27 22:36:44;;;;;;;3.60;2.50;;;5.50;39.00;;;;;;10229982;28;20260;-73
2023/03/27 22:41:47;;;;;;;2.60;2.40;;;5.40;39.20;;;;;;10195798;29;20276;-71
2023/03/27 22:46:51;;;;;;;3.20;2.57;;;5.30;39.10;;;;;;10206041;28;20820;-72
2023/03/27 22:51:56;;;;;;;4.10;2.63;;;5.30;39.20;;;;;;10203861;28;20245;-73
2023/03/27 22:56:59;;;;;;;3.20;2.30;;;5.30;39.40;;;;;;10196519;29;20245;-72
2023/03/27 23:02:02;;;;;;;2.90;2.30;;;5.20;39.30;;;;;;10196309;29;20233;-72
2023/03/27 23:07:07;;;;;;;2.60;2.40;;;5.20;39.30;;;;;;10221886;28;20799;-73
2023/03/27 23:12:10;;;;;;;2.90;2.37;;;5.20;39.50;;;;;;10227176;28;20240;-72
2023/03/27 23:17:13;;;;;;;3.10;2.53;;;5.20;39.50;;;;;;10227974;28;20287;-75
2023/03/27 23:22:18;;;;;;;2.50;2.30;;;5.20;39.40;;;;;;10235174;28;20704;-75
2023/03/27 23:27:21;;;;;;;4.40;3.13;;;5.20;39.60;;;;;;10206671;28;20264;-75
2023/03/27 23:32:24;;;;;;;4.43;3.10;;;5.20;39.70;;;;;;10195917;29;20240;-75
2023/03/27 23:37:29;;;;;;;2.87;2.67;;;5.10;39.60;;;;;;10195792;29;20233;-73
2023/03/27 23:42:32;;;;;;;3.17;2.77;;;5.10;40.00;;;;;;10195372;29;20239;-73
2023/03/27 23:47:35;;;;;;;3.13;2.63;;;5.10;39.70;;;;;;10195873;29;20241;-73
2023/03/27 23:52:40;;;;;;;3.90;2.87;;;5.10;39.80;;;;;;10195141;29;20741;-73
2023/03/27 23:57:43;;;;;;;4.17;3.10;;;5.10;40.10;;;;;;10194741;29;20237;-72
